Stations météo

Publicité
Chamonix, France (7469): Température de l'air & dewpoint: 15.04.2018 13:00:00 - 21.04.2018 13:00:00 (CEST)Chamonix, France (7469): Vitesse du vent & gusts: 15.04.2018 13:00:00 - 21.04.2018 13:00:00 (CEST)Chamonix, France (7469): Direction du vent: 15.04.2018 13:00:00 - 21.04.2018 13:00:00 (CEST)Chamonix, France (7469): Quantités de précipitations: 15.04.2018 13:00:00 - 21.04.2018 13:00:00 (CEST)
Date & Time tt [°C] td [°C] ff [km/h] ff [knt] fx [km/h] fx [knt] dd rr [mm]
21.04.2018 13:00:00 22,1 0,6 9 5 18 10 N 0,0
21.04.2018 12:00:00 21,3 -1,3 8 4 18 10 NNE 0,0
21.04.2018 11:00:00 19,5 1,9 5 3 11 6 ESE 0,0
21.04.2018 10:00:00 10,4 2,0 0 0 8 4 N 0,0
21.04.2018 09:00:00 3,3 2,3 0 0 5 3 N 0,0
21.04.2018 08:00:00 2,5 1,8 2 1 5 3 E -
21.04.2018 07:00:00 2,1 1,2 0 0 4 2 N 0,0
21.04.2018 06:00:00 2,4 1,2 0 0 4 2 N 0,0
21.04.2018 05:00:00 3,1 1,6 0 0 4 2 N 0,0
21.04.2018 04:00:00 3,7 2,1 0 0 8 4 N 0,0
21.04.2018 03:00:00 4,4 2,4 0 0 4 2 N 0,0
21.04.2018 02:00:00 5,0 2,4 0 0 5 3 N -
21.04.2018 01:00:00 5,7 2,5 0 0 5 3 N 0,0
21.04.2018 00:00:00 6,4 2,3 0 0 8 4 N 0,0
20.04.2018 23:00:00 7,6 2,5 0 0 5 3 N 0,0
20.04.2018 22:00:00 9,2 1,8 0 0 5 3 N 0,0
20.04.2018 21:00:00 12,0 2,2 2 1 18 10 NNE 0,0
20.04.2018 20:00:00 15,1 1,2 4 2 11 6 E -
20.04.2018 19:00:00 17,7 2,0 4 2 13 7 NE 0,0
20.04.2018 18:00:00 21,6 -0,4 9 5 18 10 NW 0,0
20.04.2018 17:00:00 23,6 0,6 8 4 18 10 N 0,0
20.04.2018 16:00:00 23,9 1,5 5 3 22 12 N 0,0
20.04.2018 15:00:00 23,2 0,3 8 4 22 12 NNE 0,0
20.04.2018 14:00:00 22,6 0,4 9 5 22 12 NNE -
20.04.2018 13:00:00 24,0 0,3 8 4 24 13 E 0,0
20.04.2018 12:00:00 21,9 1,5 9 5 24 13 E 0,0
20.04.2018 11:00:00 18,8 0,4 2 1 5 3 ESE 0,0
20.04.2018 10:00:00 10,0 3,9 0 0 8 4 N 0,0
20.04.2018 09:00:00 3,0 2,3 2 1 5 3 E 0,0
20.04.2018 08:00:00 2,1 1,4 0 0 4 2 N -
20.04.2018 07:00:00 1,8 0,9 0 0 5 3 N 0,0
20.04.2018 06:00:00 2,1 1,1 2 1 5 3 NE 0,0
20.04.2018 05:00:00 2,5 1,3 0 0 4 2 N 0,0
20.04.2018 04:00:00 3,1 1,6 0 0 4 2 N 0,0
20.04.2018 03:00:00 3,7 1,7 0 0 5 3 N 0,0
20.04.2018 02:00:00 4,4 1,9 0 0 4 2 N -
20.04.2018 01:00:00 5,3 2,1 2 1 8 4 NNE 0,0
20.04.2018 00:00:00 6,0 1,9 2 1 9 5 N 0,0
19.04.2018 23:00:00 7,3 2,2 2 1 8 4 E 0,0
19.04.2018 22:00:00 8,7 2,0 2 1 8 4 NNW 0,0
19.04.2018 21:00:00 11,5 1,1 4 2 18 10 NNE 0,0
19.04.2018 20:00:00 14,5 -0,4 9 5 16 9 NNE -
19.04.2018 19:00:00 16,3 -0,9 2 1 16 9 ENE 0,0
19.04.2018 18:00:00 20,3 -2,1 11 6 21 11 NW 0,0
19.04.2018 17:00:00 22,5 -3,8 8 4 22 12 N 0,0
19.04.2018 16:00:00 24,4 -0,7 4 2 16 9 E 0,0
19.04.2018 15:00:00 24,4 -1,5 8 4 22 12 ESE 0,0
19.04.2018 14:00:00 23,6 -0,7 8 4 21 11 ESE -
19.04.2018 13:00:00 22,2 -2,5 8 4 28 15 ENE 0,0
19.04.2018 12:00:00 21,6 -1,0 11 6 26 14 E 0,0
19.04.2018 11:00:00 19,1 -2,0 4 2 15 8 E 0,0
19.04.2018 10:00:00 9,8 2,9 2 1 4 2 S 0,0
19.04.2018 09:00:00 2,4 1,7 0 0 4 2 N 0,0
19.04.2018 08:00:00 1,7 1,1 0 0 4 2 N -
19.04.2018 07:00:00 1,3 0,7 0 0 4 2 N 0,0
19.04.2018 06:00:00 1,6 0,7 0 0 4 2 N 0,0
19.04.2018 05:00:00 2,1 1,2 0 0 5 3 N 0,0
19.04.2018 04:00:00 2,7 1,5 2 1 5 3 ENE 0,0
19.04.2018 03:00:00 3,2 1,7 0 0 5 3 N 0,0
19.04.2018 02:00:00 3,6 1,8 0 0 4 2 N -
19.04.2018 01:00:00 4,3 1,8 0 0 4 2 N 0,0
19.04.2018 00:00:00 5,3 2,1 0 0 4 2 N 0,0
18.04.2018 23:00:00 6,4 2,1 2 1 4 2 NNE 0,0
18.04.2018 22:00:00 7,9 1,9 0 0 5 3 N 0,0
18.04.2018 21:00:00 10,4 2,0 2 1 18 10 N 0,0
18.04.2018 20:00:00 13,8 0,8 8 4 15 8 N -
18.04.2018 19:00:00 16,0 2,0 2 1 15 8 NNE 0,0
18.04.2018 18:00:00 20,1 -0,6 9 5 18 10 NNW 0,0
18.04.2018 17:00:00 22,0 -0,7 9 5 21 11 NNE 0,0
18.04.2018 16:00:00 23,0 -1,9 4 2 16 9 NNE 0,0
18.04.2018 15:00:00 21,7 -0,4 5 3 15 8 NW 0,0
18.04.2018 14:00:00 21,4 0,0 5 3 16 9 WSW -
18.04.2018 13:00:00 22,5 0,3 4 2 11 6 SSE 0,0
18.04.2018 12:00:00 20,9 -2,9 5 3 9 5 ESE 0,0
18.04.2018 11:00:00 16,4 -0,4 0 0 8 4 N 0,0
18.04.2018 10:00:00 6,6 3,7 0 0 5 3 N 0,0
18.04.2018 09:00:00 1,8 1,5 0 0 4 2 N 0,0
18.04.2018 08:00:00 1,4 1,1 0 0 4 2 N -
18.04.2018 07:00:00 1,6 1,2 0 0 4 2 N 0,0
18.04.2018 06:00:00 2,3 1,7 0 0 4 2 N 0,0
18.04.2018 05:00:00 3,2 2,8 0 0 8 4 N 0,0
18.04.2018 04:00:00 3,0 2,4 0 0 4 2 N 0,0
18.04.2018 03:00:00 3,0 2,1 0 0 5 3 N 0,0
18.04.2018 02:00:00 3,2 2,0 2 1 5 3 ENE -
18.04.2018 01:00:00 4,0 2,2 0 0 8 4 N 0,0
18.04.2018 00:00:00 4,5 2,5 2 1 5 3 NNE 0,0
17.04.2018 23:00:00 5,3 2,3 2 1 4 2 NNW 0,0
17.04.2018 22:00:00 6,8 2,3 0 0 4 2 N 0,0
17.04.2018 21:00:00 8,9 2,9 2 1 11 6 NNE 0,0
17.04.2018 20:00:00 12,0 3,0 4 2 11 6 NNE -
17.04.2018 19:00:00 14,4 2,9 2 1 13 7 NE 0,0
17.04.2018 18:00:00 18,2 1,6 8 4 18 10 NNW 0,0
17.04.2018 17:00:00 20,2 2,1 8 4 21 11 N 0,0
17.04.2018 16:00:00 19,9 0,8 4 2 16 9 NNE 0,0
17.04.2018 15:00:00 19,9 2,3 4 2 16 9 N 0,0
17.04.2018 14:00:00 18,2 1,6 5 3 18 10 NNW -
17.04.2018 13:00:00 18,0 3,5 5 3 21 11 N 0,0
17.04.2018 12:00:00 18,0 2,3 8 4 13 7 ESE 0,0
17.04.2018 11:00:00 14,2 3,9 4 2 9 5 SSE 0,0
17.04.2018 10:00:00 5,5 5,5 2 1 5 3 ESE 0,0
17.04.2018 09:00:00 1,2 1,1 0 0 4 2 N 0,0
17.04.2018 08:00:00 0,6 0,5 0 0 5 3 N -
17.04.2018 07:00:00 0,4 0,1 0 0 4 2 N 0,0
17.04.2018 06:00:00 0,6 0,3 0 0 4 2 N 0,0
17.04.2018 05:00:00 1,1 0,7 0 0 5 3 N 0,0
17.04.2018 04:00:00 1,9 1,5 0 0 4 2 N 0,0
17.04.2018 03:00:00 2,7 2,1 0 0 4 2 N 0,0
17.04.2018 02:00:00 3,9 2,9 0 0 2 1 N -
17.04.2018 01:00:00 5,5 4,3 0 0 4 2 N 0,0
17.04.2018 00:00:00 4,6 4,0 2 1 5 3 E 0,0
16.04.2018 23:00:00 5,0 3,8 0 0 4 2 N 0,0
16.04.2018 22:00:00 6,9 4,6 0 0 5 3 N 0,0
16.04.2018 21:00:00 8,2 4,6 4 2 13 7 NNE 0,0
16.04.2018 20:00:00 11,5 5,4 4 2 9 5 NE -
16.04.2018 19:00:00 13,1 7,3 0 0 11 6 N 0,0
16.04.2018 18:00:00 13,7 5,6 5 3 13 7 SW 0,0
16.04.2018 17:00:00 13,8 5,7 4 2 16 9 SSW 0,0
16.04.2018 16:00:00 14,5 4,8 4 2 13 7 SSW 0,0
16.04.2018 15:00:00 15,3 3,7 5 3 11 6 SSW 0,0
16.04.2018 14:00:00 14,4 4,1 4 2 15 8 NNE -
16.04.2018 13:00:00 15,3 6,0 5 3 16 9 E 0,0
16.04.2018 12:00:00 12,6 5,0 4 2 11 6 NNE 0,0
16.04.2018 11:00:00 10,0 6,0 4 2 9 5 N 0,0
16.04.2018 10:00:00 8,5 5,9 0 0 4 2 N 0,0
16.04.2018 09:00:00 7,5 5,3 0 0 8 4 N 0,0
16.04.2018 08:00:00 5,6 4,6 2 1 5 3 W -
16.04.2018 07:00:00 5,8 4,8 0 0 5 3 N 0,0
16.04.2018 06:00:00 6,1 5,1 2 1 5 3 N 0,2
16.04.2018 05:00:00 6,6 4,8 0 0 5 3 N 0,0
16.04.2018 04:00:00 7,1 3,9 0 0 8 4 N 0,0
16.04.2018 03:00:00 7,4 3,6 2 1 5 3 E 0,0
16.04.2018 02:00:00 7,8 3,5 0 0 8 4 N -
16.04.2018 01:00:00 8,5 2,5 4 2 8 4 NNE 0,0
16.04.2018 00:00:00 8,7 3,7 0 0 4 2 N 0,0
15.04.2018 23:00:00 10,0 2,6 0 0 11 6 N 0,0
15.04.2018 22:00:00 10,5 2,1 2 1 11 6 S 0,0
15.04.2018 21:00:00 12,4 0,2 5 3 21 11 N 0,0
15.04.2018 20:00:00 13,4 0,1 4 2 24 13 NNW -
15.04.2018 19:00:00 15,1 -0,3 8 4 18 10 NNE 0,0
15.04.2018 18:00:00 16,6 -1,1 8 4 18 10 N 0,0
15.04.2018 17:00:00 17,9 -1,4 8 4 18 10 N 0,0
15.04.2018 16:00:00 17,2 -3,0 8 4 24 13 N 0,0
15.04.2018 15:00:00 16,7 -2,9 11 6 28 15 NNE 0,0
15.04.2018 14:00:00 15,9 -3,1 8 4 28 15 ENE -
15.04.2018 13:00:00 16,3 -3,8 9 5 24 13 NNE 0,0

tt = Température de l'air
td = dewpoint
ff = Vitesse du vent
fx = gusts
dd = Direction du vent
rr = Quantités de précipitations

stations d'obs. à proximité